sensor_id;sensor_type;location;lat;lon;timestamp;temperature;humidity
47310;DHT22;33046;52.270;6.832;2023-08-20T00:00:17;21.60;96.70
47310;DHT22;33046;52.270;6.832;2023-08-20T00:02:25;21.60;96.80
47310;DHT22;33046;52.270;6.832;2023-08-20T00:04:35;21.50;96.60
47310;DHT22;33046;52.270;6.832;2023-08-20T00:06:43;21.50;96.70
47310;DHT22;33046;52.270;6.832;2023-08-20T00:08:50;21.50;96.60
47310;DHT22;33046;52.270;6.832;2023-08-20T00:10:57;21.50;96.60
47310;DHT22;33046;52.270;6.832;2023-08-20T00:13:05;21.50;96.80
47310;DHT22;33046;52.270;6.832;2023-08-20T00:15:12;21.50;96.80
47310;DHT22;33046;52.270;6.832;2023-08-20T00:17:19;21.50;96.90
47310;DHT22;33046;52.270;6.832;2023-08-20T00:19:27;21.40;97.00
47310;DHT22;33046;52.270;6.832;2023-08-20T00:21:34;21.50;97.10
47310;DHT22;33046;52.270;6.832;2023-08-20T00:23:41;21.50;96.90
47310;DHT22;33046;52.270;6.832;2023-08-20T00:25:49;21.40;96.90
47310;DHT22;33046;52.270;6.832;2023-08-20T00:27:56;21.40;96.90
47310;DHT22;33046;52.270;6.832;2023-08-20T00:30:05;21.40;97.00
47310;DHT22;33046;52.270;6.832;2023-08-20T00:32:12;21.40;96.90
47310;DHT22;33046;52.270;6.832;2023-08-20T00:34:19;21.40;97.10
47310;DHT22;33046;52.270;6.832;2023-08-20T00:36:26;21.40;97.10
47310;DHT22;33046;52.270;6.832;2023-08-20T00:38:33;21.30;96.90
47310;DHT22;33046;52.270;6.832;2023-08-20T00:40:41;21.30;96.90
47310;DHT22;33046;52.270;6.832;2023-08-20T00:42:48;21.20;97.30
47310;DHT22;33046;52.270;6.832;2023-08-20T00:44:55;21.20;97.00
47310;DHT22;33046;52.270;6.832;2023-08-20T00:47:04;21.20;97.20
47310;DHT22;33046;52.270;6.832;2023-08-20T00:49:11;21.30;97.20
47310;DHT22;33046;52.270;6.832;2023-08-20T00:51:18;21.20;97.10
47310;DHT22;33046;52.270;6.832;2023-08-20T00:53:25;21.20;97.00
47310;DHT22;33046;52.270;6.832;2023-08-20T00:55:34;21.20;97.00
47310;DHT22;33046;52.270;6.832;2023-08-20T00:57:42;21.20;97.00
47310;DHT22;33046;52.270;6.832;2023-08-20T00:59:50;21.20;97.10
47310;DHT22;33046;52.270;6.832;2023-08-20T01:01:57;21.10;97.10
47310;DHT22;33046;52.270;6.832;2023-08-20T01:04:06;21.10;97.10
47310;DHT22;33046;52.270;6.832;2023-08-20T01:06:19;21.10;97.20
47310;DHT22;33046;52.270;6.832;2023-08-20T01:08:34;21.10;97.20
47310;DHT22;33046;52.270;6.832;2023-08-20T01:10:50;21.10;97.20
47310;DHT22;33046;52.270;6.832;2023-08-20T01:13:00;21.10;97.20
47310;DHT22;33046;52.270;6.832;2023-08-20T01:15:07;21.10;97.20
47310;DHT22;33046;52.270;6.832;2023-08-20T01:17:16;21.10;97.40
47310;DHT22;33046;52.270;6.832;2023-08-20T01:19:24;21.00;97.40
47310;DHT22;33046;52.270;6.832;2023-08-20T01:21:37;21.00;97.50
47310;DHT22;33046;52.270;6.832;2023-08-20T01:24:05;20.90;97.40
47310;DHT22;33046;52.270;6.832;2023-08-20T01:26:56;20.90;97.10
47310;DHT22;33046;52.270;6.832;2023-08-20T01:29:09;20.90;97.00
47310;DHT22;33046;52.270;6.832;2023-08-20T01:31:18;20.90;97.20
47310;DHT22;33046;52.270;6.832;2023-08-20T01:33:26;20.90;96.90
47310;DHT22;33046;52.270;6.832;2023-08-20T01:35:34;20.90;97.10
47310;DHT22;33046;52.270;6.832;2023-08-20T01:37:54;20.80;97.20
47310;DHT22;33046;52.270;6.832;2023-08-20T01:40:01;20.80;97.40
47310;DHT22;33046;52.270;6.832;2023-08-20T01:42:08;20.80;97.30
47310;DHT22;33046;52.270;6.832;2023-08-20T01:44:16;20.80;97.40
47310;DHT22;33046;52.270;6.832;2023-08-20T01:46:23;20.80;97.40
47310;DHT22;33046;52.270;6.832;2023-08-20T01:48:30;20.80;97.40
47310;DHT22;33046;52.270;6.832;2023-08-20T01:50:37;20.80;97.40
47310;DHT22;33046;52.270;6.832;2023-08-20T01:52:44;20.70;97.50
47310;DHT22;33046;52.270;6.832;2023-08-20T01:54:51;20.70;97.60
47310;DHT22;33046;52.270;6.832;2023-08-20T01:56:58;20.70;97.60
47310;DHT22;33046;52.270;6.832;2023-08-20T01:59:05;20.70;97.70
47310;DHT22;33046;52.270;6.832;2023-08-20T02:01:14;20.70;97.80
47310;DHT22;33046;52.270;6.832;2023-08-20T02:03:21;20.70;97.80
47310;DHT22;33046;52.270;6.832;2023-08-20T02:05:28;20.70;97.70
47310;DHT22;33046;52.270;6.832;2023-08-20T02:07:36;20.70;97.50
47310;DHT22;33046;52.270;6.832;2023-08-20T02:09:44;20.70;97.40
47310;DHT22;33046;52.270;6.832;2023-08-20T02:11:52;20.60;97.30
47310;DHT22;33046;52.270;6.832;2023-08-20T02:13:59;20.60;97.30
47310;DHT22;33046;52.270;6.832;2023-08-20T02:16:06;20.60;97.20
47310;DHT22;33046;52.270;6.832;2023-08-20T02:18:14;20.60;97.20
47310;DHT22;33046;52.270;6.832;2023-08-20T02:20:21;20.60;97.30
47310;DHT22;33046;52.270;6.832;2023-08-20T02:22:28;20.60;97.40
47310;DHT22;33046;52.270;6.832;2023-08-20T02:24:35;20.60;97.60
47310;DHT22;33046;52.270;6.832;2023-08-20T02:26:42;20.60;97.70
47310;DHT22;33046;52.270;6.832;2023-08-20T02:28:48;20.60;97.80
47310;DHT22;33046;52.270;6.832;2023-08-20T02:30:55;20.60;97.90
47310;DHT22;33046;52.270;6.832;2023-08-20T02:33:02;20.50;97.90
47310;DHT22;33046;52.270;6.832;2023-08-20T02:35:11;20.50;97.80
47310;DHT22;33046;52.270;6.832;2023-08-20T02:37:18;20.50;97.90
47310;DHT22;33046;52.270;6.832;2023-08-20T02:39:24;20.50;98.00
47310;DHT22;33046;52.270;6.832;2023-08-20T02:41:31;20.50;98.00
47310;DHT22;33046;52.270;6.832;2023-08-20T02:43:38;20.50;98.10
47310;DHT22;33046;52.270;6.832;2023-08-20T02:45:45;20.50;98.10
47310;DHT22;33046;52.270;6.832;2023-08-20T02:47:52;20.40;98.20
47310;DHT22;33046;52.270;6.832;2023-08-20T02:49:59;20.40;98.20
47310;DHT22;33046;52.270;6.832;2023-08-20T02:52:07;20.40;98.10
47310;DHT22;33046;52.270;6.832;2023-08-20T02:54:14;20.40;98.10
47310;DHT22;33046;52.270;6.832;2023-08-20T02:56:21;20.40;98.20
47310;DHT22;33046;52.270;6.832;2023-08-20T02:58:28;20.40;98.20
47310;DHT22;33046;52.270;6.832;2023-08-20T03:00:35;20.40;98.10
47310;DHT22;33046;52.270;6.832;2023-08-20T03:02:41;20.40;98.20
47310;DHT22;33046;52.270;6.832;2023-08-20T03:04:49;20.40;98.50
47310;DHT22;33046;52.270;6.832;2023-08-20T03:06:56;20.40;98.20
47310;DHT22;33046;52.270;6.832;2023-08-20T03:09:04;20.40;98.20
47310;DHT22;33046;52.270;6.832;2023-08-20T03:11:11;20.40;98.40
47310;DHT22;33046;52.270;6.832;2023-08-20T03:13:18;20.30;98.40
47310;DHT22;33046;52.270;6.832;2023-08-20T03:15:25;20.30;98.40
47310;DHT22;33046;52.270;6.832;2023-08-20T03:17:32;20.30;98.40
47310;DHT22;33046;52.270;6.832;2023-08-20T03:19:53;20.30;98.50
47310;DHT22;33046;52.270;6.832;2023-08-20T03:22:00;20.30;98.70
47310;DHT22;33046;52.270;6.832;2023-08-20T03:24:09;20.30;98.60
47310;DHT22;33046;52.270;6.832;2023-08-20T03:26:16;20.30;98.60
47310;DHT22;33046;52.270;6.832;2023-08-20T03:28:23;20.30;98.70
47310;DHT22;33046;52.270;6.832;2023-08-20T03:30:29;20.20;98.70
47310;DHT22;33046;52.270;6.832;2023-08-20T03:32:36;20.20;98.70
47310;DHT22;33046;52.270;6.832;2023-08-20T03:34:43;20.20;98.70
47310;DHT22;33046;52.270;6.832;2023-08-20T03:36:50;20.30;98.70
47310;DHT22;33046;52.270;6.832;2023-08-20T03:38:57;20.20;98.80
47310;DHT22;33046;52.270;6.832;2023-08-20T03:41:05;20.20;98.90
47310;DHT22;33046;52.270;6.832;2023-08-20T03:43:12;20.20;98.80
47310;DHT22;33046;52.270;6.832;2023-08-20T03:45:19;20.20;99.00
47310;DHT22;33046;52.270;6.832;2023-08-20T03:47:26;20.20;99.00
47310;DHT22;33046;52.270;6.832;2023-08-20T03:49:33;20.20;99.00
47310;DHT22;33046;52.270;6.832;2023-08-20T03:51:40;20.30;99.20
47310;DHT22;33046;52.270;6.832;2023-08-20T03:53:47;20.20;99.30
47310;DHT22;33046;52.270;6.832;2023-08-20T03:55:54;20.30;99.40
47310;DHT22;33046;52.270;6.832;2023-08-20T03:58:02;20.20;99.50
47310;DHT22;33046;52.270;6.832;2023-08-20T04:00:10;20.20;99.60
47310;DHT22;33046;52.270;6.832;2023-08-20T04:02:20;20.20;99.80
47310;DHT22;33046;52.270;6.832;2023-08-20T04:04:27;20.20;99.90
47310;DHT22;33046;52.270;6.832;2023-08-20T04:06:34;20.20;99.90
47310;DHT22;33046;52.270;6.832;2023-08-20T04:08:41;20.20;99.90
47310;DHT22;33046;52.270;6.832;2023-08-20T04:10:48;20.20;99.90
47310;DHT22;33046;52.270;6.832;2023-08-20T04:12:55;20.20;99.90
47310;DHT22;33046;52.270;6.832;2023-08-20T04:15:04;20.20;99.90
47310;DHT22;33046;52.270;6.832;2023-08-20T04:17:12;20.20;99.90
47310;DHT22;33046;52.270;6.832;2023-08-20T04:19:19;20.20;99.90
47310;DHT22;33046;52.270;6.832;2023-08-20T04:21:26;20.20;99.90
47310;DHT22;33046;52.270;6.832;2023-08-20T04:23:33;20.20;99.90
47310;DHT22;33046;52.270;6.832;2023-08-20T04:25:40;20.20;99.90
47310;DHT22;33046;52.270;6.832;2023-08-20T04:27:46;20.20;99.90
47310;DHT22;33046;52.270;6.832;2023-08-20T04:29:53;20.20;99.90
47310;DHT22;33046;52.270;6.832;2023-08-20T04:32:02;20.20;99.90
47310;DHT22;33046;52.270;6.832;2023-08-20T04:34:09;20.20;99.90
47310;DHT22;33046;52.270;6.832;2023-08-20T04:36:21;20.20;99.90
47310;DHT22;33046;52.270;6.832;2023-08-20T04:38:28;20.20;99.90
47310;DHT22;33046;52.270;6.832;2023-08-20T04:40:37;20.20;99.90
47310;DHT22;33046;52.270;6.832;2023-08-20T04:42:45;20.20;99.90
47310;DHT22;33046;52.270;6.832;2023-08-20T04:44:52;20.20;99.90
47310;DHT22;33046;52.270;6.832;2023-08-20T04:47:01;20.20;99.90
47310;DHT22;33046;52.270;6.832;2023-08-20T04:49:10;20.20;99.90
47310;DHT22;33046;52.270;6.832;2023-08-20T04:51:18;20.20;99.90
47310;DHT22;33046;52.270;6.832;2023-08-20T04:53:25;20.10;99.90
47310;DHT22;33046;52.270;6.832;2023-08-20T04:55:32;20.20;99.90
47310;DHT22;33046;52.270;6.832;2023-08-20T04:57:39;20.20;99.90
47310;DHT22;33046;52.270;6.832;2023-08-20T04:59:46;20.20;99.90
47310;DHT22;33046;52.270;6.832;2023-08-20T05:02:06;20.20;99.90
47310;DHT22;33046;52.270;6.832;2023-08-20T05:04:25;20.20;99.90
47310;DHT22;33046;52.270;6.832;2023-08-20T05:06:31;20.20;99.80
47310;DHT22;33046;52.270;6.832;2023-08-20T05:08:38;20.20;99.90
47310;DHT22;33046;52.270;6.832;2023-08-20T05:10:49;20.20;99.90
47310;DHT22;33046;52.270;6.832;2023-08-20T05:12:56;20.20;99.90
47310;DHT22;33046;52.270;6.832;2023-08-20T05:15:04;20.20;99.90
47310;DHT22;33046;52.270;6.832;2023-08-20T05:17:13;20.20;99.90
47310;DHT22;33046;52.270;6.832;2023-08-20T05:19:19;20.20;99.90
47310;DHT22;33046;52.270;6.832;2023-08-20T05:21:27;20.20;99.90
47310;DHT22;33046;52.270;6.832;2023-08-20T05:23:33;20.20;99.90
47310;DHT22;33046;52.270;6.832;2023-08-20T05:25:40;20.30;99.90
47310;DHT22;33046;52.270;6.832;2023-08-20T05:27:47;20.30;99.90
47310;DHT22;33046;52.270;6.832;2023-08-20T05:29:54;20.30;99.90
47310;DHT22;33046;52.270;6.832;2023-08-20T05:32:01;20.20;99.90
47310;DHT22;33046;52.270;6.832;2023-08-20T05:34:09;20.30;99.90
47310;DHT22;33046;52.270;6.832;2023-08-20T05:36:16;20.30;99.90
47310;DHT22;33046;52.270;6.832;2023-08-20T05:38:26;20.30;99.90
47310;DHT22;33046;52.270;6.832;2023-08-20T05:40:33;20.40;99.90
47310;DHT22;33046;52.270;6.832;2023-08-20T05:42:40;20.40;99.90
47310;DHT22;33046;52.270;6.832;2023-08-20T05:44:47;20.40;99.90
47310;DHT22;33046;52.270;6.832;2023-08-20T05:46:59;20.40;99.90
47310;DHT22;33046;52.270;6.832;2023-08-20T05:49:06;20.50;99.90
47310;DHT22;33046;52.270;6.832;2023-08-20T05:51:16;20.50;99.90
47310;DHT22;33046;52.270;6.832;2023-08-20T05:53:23;20.50;99.90
47310;DHT22;33046;52.270;6.832;2023-08-20T05:55:30;20.60;99.90
47310;DHT22;33046;52.270;6.832;2023-08-20T05:57:37;20.60;99.90
47310;DHT22;33046;52.270;6.832;2023-08-20T05:59:45;20.70;99.90
47310;DHT22;33046;52.270;6.832;2023-08-20T06:01:53;20.70;99.90
47310;DHT22;33046;52.270;6.832;2023-08-20T06:04:00;20.80;99.90
47310;DHT22;33046;52.270;6.832;2023-08-20T06:06:07;20.90;99.90
47310;DHT22;33046;52.270;6.832;2023-08-20T06:08:16;21.00;99.90
47310;DHT22;33046;52.270;6.832;2023-08-20T06:10:23;21.00;99.90
47310;DHT22;33046;52.270;6.832;2023-08-20T06:12:30;21.10;99.90
47310;DHT22;33046;52.270;6.832;2023-08-20T06:14:36;21.20;99.90
47310;DHT22;33046;52.270;6.832;2023-08-20T06:16:43;21.20;99.90
47310;DHT22;33046;52.270;6.832;2023-08-20T06:18:50;21.30;99.90
47310;DHT22;33046;52.270;6.832;2023-08-20T06:20:57;21.30;99.90
47310;DHT22;33046;52.270;6.832;2023-08-20T06:23:04;21.40;99.90
47310;DHT22;33046;52.270;6.832;2023-08-20T06:25:12;21.40;99.90
47310;DHT22;33046;52.270;6.832;2023-08-20T06:27:19;21.50;99.90
47310;DHT22;33046;52.270;6.832;2023-08-20T06:29:26;21.50;99.90
47310;DHT22;33046;52.270;6.832;2023-08-20T06:31:33;21.60;99.90
47310;DHT22;33046;52.270;6.832;2023-08-20T06:33:40;21.70;99.90
47310;DHT22;33046;52.270;6.832;2023-08-20T06:35:47;21.70;99.90
47310;DHT22;33046;52.270;6.832;2023-08-20T06:37:54;21.80;99.90
47310;DHT22;33046;52.270;6.832;2023-08-20T06:40:01;21.90;99.90
47310;DHT22;33046;52.270;6.832;2023-08-20T06:42:09;22.00;99.90
47310;DHT22;33046;52.270;6.832;2023-08-20T06:44:16;22.10;99.90
47310;DHT22;33046;52.270;6.832;2023-08-20T06:46:23;22.30;99.90
47310;DHT22;33046;52.270;6.832;2023-08-20T06:48:30;22.40;99.90
47310;DHT22;33046;52.270;6.832;2023-08-20T06:50:37;22.50;99.80
47310;DHT22;33046;52.270;6.832;2023-08-20T06:52:44;22.60;99.80
47310;DHT22;33046;52.270;6.832;2023-08-20T06:54:51;22.70;99.60
47310;DHT22;33046;52.270;6.832;2023-08-20T06:56:58;22.80;99.50
47310;DHT22;33046;52.270;6.832;2023-08-20T06:59:06;22.90;99.50
47310;DHT22;33046;52.270;6.832;2023-08-20T07:01:13;23.00;99.40
47310;DHT22;33046;52.270;6.832;2023-08-20T07:03:20;23.20;99.10
47310;DHT22;33046;52.270;6.832;2023-08-20T07:05:27;23.30;98.80
47310;DHT22;33046;52.270;6.832;2023-08-20T07:07:34;23.40;98.60
47310;DHT22;33046;52.270;6.832;2023-08-20T07:09:41;23.50;98.40
47310;DHT22;33046;52.270;6.832;2023-08-20T07:11:47;23.60;98.40
47310;DHT22;33046;52.270;6.832;2023-08-20T07:13:55;23.60;98.00
47310;DHT22;33046;52.270;6.832;2023-08-20T07:16:03;23.70;98.10
47310;DHT22;33046;52.270;6.832;2023-08-20T07:18:10;23.80;98.00
47310;DHT22;33046;52.270;6.832;2023-08-20T07:20:17;23.80;97.80
47310;DHT22;33046;52.270;6.832;2023-08-20T07:22:24;23.90;97.70
47310;DHT22;33046;52.270;6.832;2023-08-20T07:24:31;23.90;97.70
47310;DHT22;33046;52.270;6.832;2023-08-20T07:26:38;24.00;97.60
47310;DHT22;33046;52.270;6.832;2023-08-20T07:28:44;24.00;97.70
47310;DHT22;33046;52.270;6.832;2023-08-20T07:30:51;24.10;97.80
47310;DHT22;33046;52.270;6.832;2023-08-20T07:33:00;24.00;97.60
47310;DHT22;33046;52.270;6.832;2023-08-20T07:35:10;24.00;97.60
47310;DHT22;33046;52.270;6.832;2023-08-20T07:37:18;24.10;97.50
47310;DHT22;33046;52.270;6.832;2023-08-20T07:39:24;24.10;97.60
47310;DHT22;33046;52.270;6.832;2023-08-20T07:41:31;24.10;97.50
47310;DHT22;33046;52.270;6.832;2023-08-20T07:43:39;24.10;97.70
47310;DHT22;33046;52.270;6.832;2023-08-20T07:45:46;24.10;97.80
47310;DHT22;33046;52.270;6.832;2023-08-20T07:47:53;24.10;97.80
47310;DHT22;33046;52.270;6.832;2023-08-20T07:50:01;24.10;97.90
47310;DHT22;33046;52.270;6.832;2023-08-20T07:52:09;24.10;97.90
47310;DHT22;33046;52.270;6.832;2023-08-20T07:54:15;24.10;97.90
47310;DHT22;33046;52.270;6.832;2023-08-20T07:56:22;24.10;97.90
47310;DHT22;33046;52.270;6.832;2023-08-20T07:58:29;24.10;97.80
47310;DHT22;33046;52.270;6.832;2023-08-20T08:00:36;24.10;97.60
47310;DHT22;33046;52.270;6.832;2023-08-20T08:02:43;24.10;97.40
47310;DHT22;33046;52.270;6.832;2023-08-20T08:04:50;24.10;97.20
47310;DHT22;33046;52.270;6.832;2023-08-20T08:06:58;24.10;97.10
47310;DHT22;33046;52.270;6.832;2023-08-20T08:09:25;24.10;96.70
47310;DHT22;33046;52.270;6.832;2023-08-20T08:11:32;24.10;96.70
47310;DHT22;33046;52.270;6.832;2023-08-20T08:13:39;24.10;96.70
47310;DHT22;33046;52.270;6.832;2023-08-20T08:15:46;24.10;96.70
47310;DHT22;33046;52.270;6.832;2023-08-20T08:17:53;24.10;96.80
47310;DHT22;33046;52.270;6.832;2023-08-20T08:20:00;24.20;96.90
47310;DHT22;33046;52.270;6.832;2023-08-20T08:24:30;24.20;96.40
47310;DHT22;33046;52.270;6.832;2023-08-20T08:26:37;24.20;96.40
47310;DHT22;33046;52.270;6.832;2023-08-20T08:28:44;24.20;96.30
47310;DHT22;33046;52.270;6.832;2023-08-20T08:30:50;24.20;96.30
47310;DHT22;33046;52.270;6.832;2023-08-20T08:32:58;24.20;96.20
47310;DHT22;33046;52.270;6.832;2023-08-20T08:35:05;24.30;96.10
47310;DHT22;33046;52.270;6.832;2023-08-20T08:37:12;24.30;96.20
47310;DHT22;33046;52.270;6.832;2023-08-20T08:39:19;24.30;96.00
47310;DHT22;33046;52.270;6.832;2023-08-20T08:41:28;24.40;95.60
47310;DHT22;33046;52.270;6.832;2023-08-20T08:43:37;24.40;95.10
47310;DHT22;33046;52.270;6.832;2023-08-20T08:45:46;24.40;95.30
47310;DHT22;33046;52.270;6.832;2023-08-20T08:47:54;24.40;95.70
47310;DHT22;33046;52.270;6.832;2023-08-20T08:50:01;24.40;95.70
47310;DHT22;33046;52.270;6.832;2023-08-20T08:52:10;24.50;95.50
47310;DHT22;33046;52.270;6.832;2023-08-20T08:54:19;24.50;95.50
47310;DHT22;33046;52.270;6.832;2023-08-20T08:56:28;24.50;95.40
47310;DHT22;33046;52.270;6.832;2023-08-20T08:58:34;24.60;95.90
47310;DHT22;33046;52.270;6.832;2023-08-20T09:00:41;24.60;95.70
47310;DHT22;33046;52.270;6.832;2023-08-20T09:02:48;24.60;95.40
47310;DHT22;33046;52.270;6.832;2023-08-20T09:04:55;24.60;95.70
47310;DHT22;33046;52.270;6.832;2023-08-20T09:07:03;24.70;95.60
47310;DHT22;33046;52.270;6.832;2023-08-20T09:09:10;24.80;95.50
47310;DHT22;33046;52.270;6.832;2023-08-20T09:11:17;24.80;95.40
47310;DHT22;33046;52.270;6.832;2023-08-20T09:13:26;24.80;95.40
47310;DHT22;33046;52.270;6.832;2023-08-20T09:17:48;24.80;95.80
47310;DHT22;33046;52.270;6.832;2023-08-20T09:19:56;24.90;95.50
47310;DHT22;33046;52.270;6.832;2023-08-20T09:22:03;24.90;95.60
47310;DHT22;33046;52.270;6.832;2023-08-20T09:24:10;25.00;95.40
47310;DHT22;33046;52.270;6.832;2023-08-20T09:26:17;25.00;95.40
47310;DHT22;33046;52.270;6.832;2023-08-20T09:28:25;25.00;95.50
47310;DHT22;33046;52.270;6.832;2023-08-20T09:30:32;25.00;95.60
47310;DHT22;33046;52.270;6.832;2023-08-20T09:32:39;25.00;95.70
47310;DHT22;33046;52.270;6.832;2023-08-20T09:34:47;25.10;95.50
47310;DHT22;33046;52.270;6.832;2023-08-20T09:36:54;25.10;95.30
47310;DHT22;33046;52.270;6.832;2023-08-20T09:39:02;25.10;95.30
47310;DHT22;33046;52.270;6.832;2023-08-20T09:41:09;25.20;95.50
47310;DHT22;33046;52.270;6.832;2023-08-20T09:43:16;25.20;95.60
47310;DHT22;33046;52.270;6.832;2023-08-20T09:45:25;25.20;95.60
47310;DHT22;33046;52.270;6.832;2023-08-20T09:47:36;25.30;95.40
47310;DHT22;33046;52.270;6.832;2023-08-20T09:49:47;25.30;95.40
47310;DHT22;33046;52.270;6.832;2023-08-20T09:51:55;25.40;95.40
47310;DHT22;33046;52.270;6.832;2023-08-20T09:54:10;25.40;94.80
47310;DHT22;33046;52.270;6.832;2023-08-20T09:56:24;25.40;95.00
47310;DHT22;33046;52.270;6.832;2023-08-20T09:58:33;25.40;95.10
47310;DHT22;33046;52.270;6.832;2023-08-20T10:00:42;25.40;95.10
47310;DHT22;33046;52.270;6.832;2023-08-20T10:02:49;25.50;95.20
47310;DHT22;33046;52.270;6.832;2023-08-20T10:04:57;25.50;94.90
47310;DHT22;33046;52.270;6.832;2023-08-20T10:07:05;25.60;94.50
47310;DHT22;33046;52.270;6.832;2023-08-20T10:09:12;25.60;94.60
47310;DHT22;33046;52.270;6.832;2023-08-20T10:11:19;25.60;94.60
47310;DHT22;33046;52.270;6.832;2023-08-20T10:13:27;25.70;94.30
47310;DHT22;33046;52.270;6.832;2023-08-20T10:15:34;25.60;93.90
47310;DHT22;33046;52.270;6.832;2023-08-20T10:17:44;25.60;94.00
47310;DHT22;33046;52.270;6.832;2023-08-20T10:19:52;25.70;94.00
47310;DHT22;33046;52.270;6.832;2023-08-20T10:21:59;25.70;93.30
47310;DHT22;33046;52.270;6.832;2023-08-20T10:24:08;25.70;93.60
47310;DHT22;33046;52.270;6.832;2023-08-20T10:26:15;25.70;93.20
47310;DHT22;33046;52.270;6.832;2023-08-20T10:28:24;25.80;93.00
47310;DHT22;33046;52.270;6.832;2023-08-20T10:30:31;25.80;93.20
47310;DHT22;33046;52.270;6.832;2023-08-20T10:32:47;25.90;93.50
47310;DHT22;33046;52.270;6.832;2023-08-20T10:34:57;25.90;93.20
47310;DHT22;33046;52.270;6.832;2023-08-20T10:37:09;25.90;92.90
47310;DHT22;33046;52.270;6.832;2023-08-20T10:39:20;25.90;91.50
47310;DHT22;33046;52.270;6.832;2023-08-20T10:41:28;25.90;91.40
47310;DHT22;33046;52.270;6.832;2023-08-20T10:43:37;26.00;91.20
47310;DHT22;33046;52.270;6.832;2023-08-20T10:45:44;26.00;91.50
47310;DHT22;33046;52.270;6.832;2023-08-20T10:47:52;26.00;91.80
47310;DHT22;33046;52.270;6.832;2023-08-20T10:50:00;26.00;91.80
47310;DHT22;33046;52.270;6.832;2023-08-20T10:52:07;26.00;91.30
47310;DHT22;33046;52.270;6.832;2023-08-20T10:54:14;26.10;91.10
47310;DHT22;33046;52.270;6.832;2023-08-20T10:56:22;26.10;91.00
47310;DHT22;33046;52.270;6.832;2023-08-20T10:58:30;26.10;91.00
47310;DHT22;33046;52.270;6.832;2023-08-20T11:00:37;26.20;90.90
47310;DHT22;33046;52.270;6.832;2023-08-20T11:02:44;26.20;88.80
47310;DHT22;33046;52.270;6.832;2023-08-20T11:04:53;26.30;89.00
47310;DHT22;33046;52.270;6.832;2023-08-20T11:07:00;26.30;89.90
47310;DHT22;33046;52.270;6.832;2023-08-20T11:09:07;26.30;87.50
47310;DHT22;33046;52.270;6.832;2023-08-20T11:11:14;26.30;86.20
47310;DHT22;33046;52.270;6.832;2023-08-20T11:13:21;26.30;87.30
47310;DHT22;33046;52.270;6.832;2023-08-20T11:15:28;26.40;87.30
47310;DHT22;33046;52.270;6.832;2023-08-20T11:17:39;26.40;86.80
47310;DHT22;33046;52.270;6.832;2023-08-20T11:19:46;26.40;86.20
47310;DHT22;33046;52.270;6.832;2023-08-20T11:21:59;26.40;84.30
47310;DHT22;33046;52.270;6.832;2023-08-20T11:24:07;26.50;83.20
47310;DHT22;33046;52.270;6.832;2023-08-20T11:26:14;26.50;81.90
47310;DHT22;33046;52.270;6.832;2023-08-20T11:28:21;26.60;82.40
47310;DHT22;33046;52.270;6.832;2023-08-20T11:30:29;26.60;82.10
47310;DHT22;33046;52.270;6.832;2023-08-20T11:32:36;26.60;83.70
47310;DHT22;33046;52.270;6.832;2023-08-20T11:34:43;26.60;83.40
47310;DHT22;33046;52.270;6.832;2023-08-20T11:36:50;26.60;82.30
47310;DHT22;33046;52.270;6.832;2023-08-20T11:38:59;26.70;83.00
47310;DHT22;33046;52.270;6.832;2023-08-20T11:41:06;26.70;81.60
47310;DHT22;33046;52.270;6.832;2023-08-20T11:43:12;26.70;81.80
47310;DHT22;33046;52.270;6.832;2023-08-20T11:45:19;26.80;81.90
47310;DHT22;33046;52.270;6.832;2023-08-20T11:47:26;26.80;81.70
47310;DHT22;33046;52.270;6.832;2023-08-20T11:49:33;26.90;81.50
47310;DHT22;33046;52.270;6.832;2023-08-20T11:51:42;26.90;82.00
47310;DHT22;33046;52.270;6.832;2023-08-20T11:53:49;27.00;81.80
47310;DHT22;33046;52.270;6.832;2023-08-20T11:55:57;26.90;80.80
47310;DHT22;33046;52.270;6.832;2023-08-20T11:58:04;27.00;80.70
47310;DHT22;33046;52.270;6.832;2023-08-20T12:00:24;27.10;79.10
47310;DHT22;33046;52.270;6.832;2023-08-20T12:02:31;27.10;79.80
47310;DHT22;33046;52.270;6.832;2023-08-20T12:04:50;27.10;81.30
47310;DHT22;33046;52.270;6.832;2023-08-20T12:07:04;27.20;81.90
47310;DHT22;33046;52.270;6.832;2023-08-20T12:09:22;27.20;81.30
47310;DHT22;33046;52.270;6.832;2023-08-20T12:11:30;27.30;80.80
47310;DHT22;33046;52.270;6.832;2023-08-20T12:13:38;27.30;80.00
47310;DHT22;33046;52.270;6.832;2023-08-20T12:15:44;27.30;80.70
47310;DHT22;33046;52.270;6.832;2023-08-20T12:18:02;27.40;79.00
47310;DHT22;33046;52.270;6.832;2023-08-20T12:20:09;27.40;79.80
47310;DHT22;33046;52.270;6.832;2023-08-20T12:22:16;27.40;78.30
47310;DHT22;33046;52.270;6.832;2023-08-20T12:24:23;27.50;78.40
47310;DHT22;33046;52.270;6.832;2023-08-20T12:26:32;27.50;77.80
47310;DHT22;33046;52.270;6.832;2023-08-20T12:28:38;27.50;77.40
47310;DHT22;33046;52.270;6.832;2023-08-20T12:30:45;27.60;79.30
47310;DHT22;33046;52.270;6.832;2023-08-20T12:32:52;27.60;78.10
47310;DHT22;33046;52.270;6.832;2023-08-20T12:34:59;27.70;76.90
47310;DHT22;33046;52.270;6.832;2023-08-20T12:37:06;27.70;75.40
47310;DHT22;33046;52.270;6.832;2023-08-20T12:39:13;27.70;75.30
47310;DHT22;33046;52.270;6.832;2023-08-20T12:41:20;27.70;76.00
47310;DHT22;33046;52.270;6.832;2023-08-20T12:43:29;27.80;76.80
47310;DHT22;33046;52.270;6.832;2023-08-20T12:45:36;27.80;76.10
47310;DHT22;33046;52.270;6.832;2023-08-20T12:47:43;27.70;74.20
47310;DHT22;33046;52.270;6.832;2023-08-20T12:49:50;27.80;76.40
47310;DHT22;33046;52.270;6.832;2023-08-20T12:51:57;27.80;73.00
47310;DHT22;33046;52.270;6.832;2023-08-20T12:54:04;27.80;72.40
47310;DHT22;33046;52.270;6.832;2023-08-20T12:56:11;27.80;73.50
47310;DHT22;33046;52.270;6.832;2023-08-20T12:58:18;27.70;74.60
47310;DHT22;33046;52.270;6.832;2023-08-20T13:00:26;27.80;75.00
47310;DHT22;33046;52.270;6.832;2023-08-20T13:02:34;27.80;74.10
47310;DHT22;33046;52.270;6.832;2023-08-20T13:04:41;27.80;73.50
47310;DHT22;33046;52.270;6.832;2023-08-20T13:06:49;27.80;73.80
47310;DHT22;33046;52.270;6.832;2023-08-20T13:08:57;27.70;71.90
47310;DHT22;33046;52.270;6.832;2023-08-20T13:11:06;27.70;71.10
47310;DHT22;33046;52.270;6.832;2023-08-20T13:13:14;27.70;70.40
47310;DHT22;33046;52.270;6.832;2023-08-20T13:15:23;27.80;72.30
47310;DHT22;33046;52.270;6.832;2023-08-20T13:17:31;27.80;72.00
47310;DHT22;33046;52.270;6.832;2023-08-20T13:19:38;27.80;72.20
47310;DHT22;33046;52.270;6.832;2023-08-20T13:21:46;27.80;73.20
47310;DHT22;33046;52.270;6.832;2023-08-20T13:23:52;27.80;73.10
47310;DHT22;33046;52.270;6.832;2023-08-20T13:25:59;27.80;72.60
47310;DHT22;33046;52.270;6.832;2023-08-20T13:28:06;27.80;71.10
47310;DHT22;33046;52.270;6.832;2023-08-20T13:30:13;27.90;69.60
47310;DHT22;33046;52.270;6.832;2023-08-20T13:32:20;27.90;70.20